createdAt,value
2022-10-23T00:01:26.858Z,13.00
2022-10-23T00:03:58.150Z,13.00
2022-10-23T00:06:26.252Z,13.10
2022-10-23T00:08:53.231Z,13.10
2022-10-23T00:11:24.511Z,13.00
2022-10-23T00:13:53.396Z,13.10
2022-10-23T00:16:20.441Z,13.10
2022-10-23T00:18:47.347Z,13.10
2022-10-23T00:21:15.855Z,13.10
2022-10-23T00:23:43.224Z,13.10
2022-10-23T00:26:16.566Z,13.00
2022-10-23T00:28:45.492Z,13.00
2022-10-23T00:31:13.078Z,12.90
2022-10-23T00:33:40.215Z,12.90
2022-10-23T00:36:09.691Z,12.70
2022-10-23T00:38:37.267Z,12.60
2022-10-23T00:41:07.139Z,12.50
2022-10-23T00:43:54.466Z,12.50
2022-10-23T00:46:21.375Z,12.40
2022-10-23T00:48:48.362Z,12.40
2022-10-23T00:51:15.312Z,12.50
2022-10-23T00:53:52.851Z,12.60
2022-10-23T00:56:24.191Z,12.60
2022-10-23T00:58:51.129Z,12.60
2022-10-23T01:01:20.892Z,12.50
2022-10-23T01:03:49.010Z,12.50
2022-10-23T01:06:30.489Z,12.50
2022-10-23T01:09:09.537Z,12.30
2022-10-23T01:11:41.106Z,12.20
2022-10-23T01:14:25.113Z,12.10
2022-10-23T01:17:25.140Z,12.20
2022-10-23T01:19:57.888Z,12.30
2022-10-23T01:25:10.084Z,12.40
2022-10-23T01:27:41.240Z,12.50
2022-10-23T01:30:16.919Z,12.50
2022-10-23T01:33:26.143Z,12.50
2022-10-23T01:35:59.394Z,12.50
2022-10-23T01:38:49.745Z,12.60
2022-10-23T01:41:21.204Z,12.50
2022-10-23T01:44:06.316Z,12.60
2022-10-23T01:46:35.777Z,12.60
2022-10-23T01:49:04.468Z,12.70
2022-10-23T01:51:32.120Z,12.70
2022-10-23T01:54:01.241Z,12.70
2022-10-23T01:56:33.631Z,12.70
2022-10-23T01:59:06.448Z,12.80
2022-10-23T02:01:34.832Z,12.80
2022-10-23T02:04:05.731Z,12.80
2022-10-23T02:06:32.788Z,12.80
2022-10-23T02:08:59.766Z,12.80
2022-10-23T02:11:26.734Z,12.80
2022-10-23T02:14:24.542Z,12.80
2022-10-23T02:16:53.901Z,12.70
2022-10-23T02:19:36.287Z,12.70
2022-10-23T02:22:06.176Z,12.70
2022-10-23T02:24:41.158Z,12.70
2022-10-23T02:27:15.315Z,12.70
2022-10-23T02:29:52.113Z,12.60
2022-10-23T02:32:22.390Z,12.50
2022-10-23T02:34:49.257Z,12.40
2022-10-23T02:37:16.647Z,12.30
2022-10-23T02:39:43.690Z,12.20
2022-10-23T02:42:29.372Z,12.20
2022-10-23T02:45:20.177Z,12.10
2022-10-23T02:47:57.947Z,12.20
2022-10-23T02:50:42.887Z,12.10
2022-10-23T02:53:29.832Z,12.10
2022-10-23T02:56:15.151Z,12.10
2022-10-23T02:59:01.398Z,12.00
2022-10-23T03:01:54.778Z,11.80
2022-10-23T03:04:25.114Z,11.70
2022-10-23T03:06:52.406Z,11.50
2022-10-23T03:09:19.552Z,11.40
2022-10-23T03:11:46.520Z,11.30
2022-10-23T03:14:14.031Z,11.30
2022-10-23T03:16:40.936Z,11.40
2022-10-23T03:19:07.902Z,11.30
2022-10-23T03:21:34.827Z,11.40
2022-10-23T03:24:01.736Z,11.30
2022-10-23T03:26:28.685Z,11.30
2022-10-23T03:28:55.609Z,11.20
2022-10-23T03:31:22.569Z,11.30
2022-10-23T03:33:49.513Z,11.30
2022-10-23T03:36:16.418Z,11.40
2022-10-23T03:38:43.302Z,11.40
2022-10-23T03:41:10.202Z,11.40
2022-10-23T03:43:37.192Z,11.40
2022-10-23T03:46:09.182Z,11.50
2022-10-23T03:48:39.409Z,11.50
2022-10-23T03:51:06.686Z,11.60
2022-10-23T03:53:34.178Z,11.60
2022-10-23T03:56:01.123Z,11.70
2022-10-23T03:58:28.032Z,11.70
2022-10-23T04:00:54.962Z,11.70
2022-10-23T04:03:21.822Z,11.70
2022-10-23T04:05:52.096Z,11.80
2022-10-23T04:08:20.237Z,11.80
2022-10-23T04:10:47.490Z,11.80
2022-10-23T04:13:14.588Z,11.80
2022-10-23T04:15:41.460Z,11.80
2022-10-23T04:18:08.341Z,11.80
2022-10-23T04:20:35.197Z,11.80
2022-10-23T04:23:02.068Z,11.80
2022-10-23T04:25:29.030Z,11.80
2022-10-23T04:27:55.910Z,11.80
2022-10-23T04:30:22.782Z,11.90
2022-10-23T04:32:53.243Z,11.90
2022-10-23T04:35:20.581Z,11.90
2022-10-23T04:37:48.414Z,12.00
2022-10-23T04:40:15.378Z,12.00
2022-10-23T04:42:42.504Z,11.90
2022-10-23T04:45:10.025Z,12.00
2022-10-23T04:47:36.910Z,11.90
2022-10-23T04:50:04.273Z,11.90
2022-10-23T04:52:31.159Z,11.90
2022-10-23T04:54:58.069Z,12.00
2022-10-23T04:57:25.054Z,12.00
2022-10-23T04:59:51.907Z,11.90
2022-10-23T05:02:18.832Z,11.90
2022-10-23T05:04:45.705Z,11.90
2022-10-23T05:07:12.718Z,12.10
2022-10-23T05:09:39.707Z,12.00
2022-10-23T05:12:06.631Z,11.80
2022-10-23T05:14:33.483Z,11.50
2022-10-23T05:17:00.319Z,11.50
2022-10-23T05:19:46.278Z,11.60
2022-10-23T05:22:14.666Z,11.50
2022-10-23T05:24:41.606Z,11.50
2022-10-23T05:27:08.464Z,11.60
2022-10-23T05:29:35.371Z,11.60
2022-10-23T05:32:05.457Z,11.70
2022-10-23T05:34:35.167Z,11.70
2022-10-23T05:37:03.576Z,11.60
2022-10-23T05:39:30.617Z,11.60
2022-10-23T05:41:57.464Z,11.60
2022-10-23T05:44:24.435Z,11.70
2022-10-23T05:46:51.327Z,11.70
2022-10-23T05:49:18.282Z,11.80
2022-10-23T05:51:45.238Z,11.80
2022-10-23T05:54:12.147Z,11.80
2022-10-23T05:56:43.170Z,11.90
2022-10-23T05:59:10.720Z,11.90
2022-10-23T06:01:38.374Z,11.90
2022-10-23T06:04:05.995Z,12.00
2022-10-23T06:06:32.935Z,12.00
2022-10-23T06:08:59.921Z,12.10
2022-10-23T06:11:26.851Z,12.10
2022-10-23T06:13:53.809Z,12.20
2022-10-23T06:16:24.662Z,12.30
2022-10-23T06:18:51.566Z,12.30
2022-10-23T06:21:18.604Z,12.40
2022-10-23T06:23:46.778Z,12.50
2022-10-23T06:26:16.163Z,12.50
2022-10-23T06:28:43.473Z,12.60
2022-10-23T06:31:13.311Z,12.70
2022-10-23T06:33:40.504Z,12.60
2022-10-23T06:36:10.721Z,12.60
2022-10-23T06:38:40.571Z,12.60
2022-10-23T06:41:14.010Z,12.60
2022-10-23T06:43:41.087Z,12.60
2022-10-23T06:46:08.195Z,12.60
2022-10-23T06:48:35.051Z,12.60
2022-10-23T06:51:07.516Z,12.60
2022-10-23T06:53:35.890Z,12.60
2022-10-23T06:56:04.528Z,12.60
2022-10-23T06:58:32.039Z,12.60
2022-10-23T07:01:03.477Z,12.60
2022-10-23T07:03:30.774Z,12.70
2022-10-23T07:06:01.872Z,12.70
2022-10-23T07:08:29.554Z,12.80
2022-10-23T07:10:56.925Z,12.90
2022-10-23T07:13:25.090Z,12.90
2022-10-23T07:15:52.089Z,13.00
2022-10-23T07:18:19.592Z,13.00
2022-10-23T07:20:49.508Z,13.10
2022-10-23T07:23:16.735Z,13.20
2022-10-23T07:25:43.627Z,13.20
2022-10-23T07:28:10.555Z,13.30
2022-10-23T07:30:37.467Z,13.40
2022-10-23T07:33:04.382Z,13.40
2022-10-23T07:35:33.102Z,13.50
2022-10-23T07:38:02.647Z,13.60
2022-10-23T07:40:29.515Z,13.70
2022-10-23T07:42:56.815Z,13.80
2022-10-23T07:45:23.695Z,13.90
2022-10-23T07:47:52.162Z,13.90
2022-10-23T07:50:19.662Z,13.90
2022-10-23T07:52:47.025Z,13.90
2022-10-23T07:55:14.389Z,13.90
2022-10-23T07:57:41.300Z,14.00
2022-10-23T08:00:09.628Z,13.90
2022-10-23T08:02:36.877Z,13.90
2022-10-23T08:05:04.664Z,14.00
2022-10-23T08:07:31.590Z,13.90
2022-10-23T08:09:58.540Z,13.90
2022-10-23T08:12:25.445Z,14.00
2022-10-23T08:14:52.550Z,14.20
2022-10-23T08:17:19.591Z,14.20
2022-10-23T08:19:48.590Z,14.40
2022-10-23T08:22:15.943Z,14.20
2022-10-23T08:24:43.026Z,14.30
2022-10-23T08:27:09.995Z,14.40
2022-10-23T08:29:36.947Z,14.40
2022-10-23T08:32:04.435Z,14.40
2022-10-23T08:34:31.546Z,14.50
2022-10-23T08:36:58.585Z,14.40
2022-10-23T08:39:25.527Z,14.50
2022-10-23T08:41:53.418Z,14.50
2022-10-23T08:44:33.586Z,14.50
2022-10-23T08:47:14.613Z,14.70
2022-10-23T08:49:53.973Z,14.70
2022-10-23T08:52:37.612Z,14.70
2022-10-23T08:55:23.601Z,14.50
2022-10-23T08:58:07.560Z,14.50
2022-10-23T09:00:34.877Z,14.50
2022-10-23T09:03:04.708Z,14.30
2022-10-23T09:06:13.609Z,14.30
2022-10-23T09:09:05.101Z,14.30
2022-10-23T09:11:48.309Z,14.20
2022-10-23T09:14:30.093Z,14.10
2022-10-23T09:17:17.102Z,14.00
2022-10-23T09:19:45.886Z,14.00
2022-10-23T09:22:13.723Z,14.00
2022-10-23T09:24:43.766Z,14.10
2022-10-23T09:27:16.956Z,14.20
2022-10-23T09:29:53.160Z,14.20
2022-10-23T09:32:21.081Z,14.40
2022-10-23T09:34:55.364Z,14.50
2022-10-23T09:37:22.222Z,14.50
2022-10-23T09:39:49.487Z,14.60
2022-10-23T09:42:26.454Z,14.60
2022-10-23T09:44:55.183Z,14.60
2022-10-23T09:47:24.649Z,14.60
2022-10-23T09:49:54.088Z,14.80
2022-10-23T09:52:39.620Z,14.90
2022-10-23T09:55:24.984Z,15.00
2022-10-23T09:57:53.900Z,15.10
2022-10-23T10:00:24.225Z,15.10
2022-10-23T10:02:57.292Z,15.10
2022-10-23T10:05:31.287Z,15.10
2022-10-23T10:08:07.439Z,15.20
2022-10-23T10:10:39.462Z,15.30
2022-10-23T10:13:37.888Z,15.50
2022-10-23T10:16:05.036Z,15.60
2022-10-23T10:18:38.055Z,15.30
2022-10-23T10:21:11.089Z,15.10
2022-10-23T10:23:50.454Z,15.00
2022-10-23T10:26:44.510Z,15.00
2022-10-23T10:29:56.182Z,15.00
2022-10-23T10:32:41.393Z,15.00
2022-10-23T10:35:37.643Z,14.90
2022-10-23T10:38:27.594Z,14.80
2022-10-23T10:41:09.737Z,14.70
2022-10-23T10:44:15.867Z,14.70
2022-10-23T10:46:48.356Z,14.70
2022-10-23T10:49:53.524Z,14.70
2022-10-23T10:52:31.897Z,14.80
2022-10-23T10:58:58.304Z,15.10
2022-10-23T11:01:31.159Z,15.30
2022-10-23T11:04:35.476Z,15.30
2022-10-23T11:07:08.248Z,15.30
2022-10-23T11:09:35.399Z,15.40
2022-10-23T11:12:02.320Z,15.40
2022-10-23T11:14:33.265Z,15.60
2022-10-23T11:17:14.292Z,15.80
2022-10-23T11:19:46.316Z,15.80
2022-10-23T11:22:46.661Z,15.60
2022-10-23T11:25:41.662Z,15.70
2022-10-23T11:28:23.828Z,15.80
2022-10-23T11:30:59.670Z,15.70
2022-10-23T11:33:47.094Z,15.50
2022-10-23T11:36:40.735Z,15.40
2022-10-23T11:39:18.388Z,15.60
2022-10-23T11:41:58.090Z,15.80
2022-10-23T11:44:49.627Z,16.10
2022-10-23T11:47:25.509Z,16.20
2022-10-23T11:50:05.257Z,15.80
2022-10-23T11:52:32.337Z,15.60
2022-10-23T11:55:04.767Z,15.40
2022-10-23T11:57:31.691Z,15.40
2022-10-23T11:59:58.735Z,15.60
2022-10-23T12:02:32.806Z,15.70
2022-10-23T12:05:09.992Z,15.70
2022-10-23T12:07:39.988Z,15.70
2022-10-23T12:10:19.350Z,15.70
2022-10-23T12:12:57.400Z,15.50
2022-10-23T12:15:26.066Z,15.50
2022-10-23T12:17:54.908Z,15.60
2022-10-23T12:20:35.269Z,15.60
2022-10-23T12:23:36.314Z,15.60
2022-10-23T12:26:31.337Z,15.70
2022-10-23T12:29:29.384Z,15.80
2022-10-23T12:32:19.945Z,15.80
2022-10-23T12:34:49.863Z,15.60
2022-10-23T12:37:44.128Z,15.50
2022-10-23T12:40:12.270Z,15.20
2022-10-23T12:42:39.772Z,15.30
2022-10-23T12:45:20.761Z,15.10
2022-10-23T12:47:49.995Z,15.10
2022-10-23T12:50:21.865Z,15.30
2022-10-23T12:53:03.613Z,15.30
2022-10-23T12:56:03.262Z,15.40
2022-10-23T12:58:33.534Z,15.50
2022-10-23T13:01:02.976Z,15.50
2022-10-23T13:03:31.794Z,15.30
2022-10-23T13:06:02.657Z,15.30
2022-10-23T13:08:40.748Z,15.30
2022-10-23T13:11:12.293Z,15.20
2022-10-23T13:13:40.066Z,15.30
2022-10-23T13:16:19.451Z,15.30
2022-10-23T13:18:46.831Z,15.20
2022-10-23T13:21:25.646Z,15.20
2022-10-23T13:23:53.977Z,15.20
2022-10-23T13:26:45.403Z,15.20
2022-10-23T13:29:30.990Z,15.20
2022-10-23T13:31:58.580Z,15.20
2022-10-23T13:34:29.599Z,15.10
2022-10-23T13:37:16.385Z,15.10
2022-10-23T13:39:43.285Z,15.00
2022-10-23T13:42:14.811Z,15.00
2022-10-23T13:44:41.887Z,15.10
2022-10-23T13:47:13.409Z,15.10
2022-10-23T13:49:40.327Z,15.00
2022-10-23T13:52:12.860Z,14.90
2022-10-23T13:54:39.804Z,14.90
2022-10-23T13:57:11.490Z,14.90
2022-10-23T13:59:38.411Z,14.90
2022-10-23T14:02:21.100Z,14.70
2022-10-23T14:04:49.767Z,14.60
2022-10-23T14:07:17.079Z,14.70
2022-10-23T14:09:44.427Z,14.70
2022-10-23T14:12:12.477Z,14.70
2022-10-23T14:14:39.485Z,14.80
2022-10-23T14:17:06.355Z,14.80
2022-10-23T14:22:04.112Z,14.80
2022-10-23T14:24:31.002Z,14.70
2022-10-23T14:26:57.997Z,14.70
2022-10-23T14:29:25.015Z,14.50
2022-10-23T14:31:52.191Z,14.50
2022-10-23T14:34:19.336Z,14.30
2022-10-23T14:36:50.249Z,14.10
2022-10-23T14:39:23.590Z,14.10
2022-10-23T14:41:50.515Z,13.90
2022-10-23T14:44:17.421Z,13.70
2022-10-23T14:46:44.319Z,13.60
2022-10-23T14:49:11.227Z,13.30
2022-10-23T14:51:38.452Z,13.10
2022-10-23T14:54:07.027Z,13.00
2022-10-23T14:56:37.582Z,12.90
2022-10-23T14:59:05.008Z,12.70
2022-10-23T15:01:43.900Z,12.60
2022-10-23T15:04:14.762Z,12.50
2022-10-23T15:06:42.537Z,12.40
2022-10-23T15:09:09.793Z,12.30
2022-10-23T15:11:36.769Z,12.10
2022-10-23T15:14:03.689Z,12.00
2022-10-23T15:16:30.942Z,11.90
2022-10-23T15:18:57.910Z,11.90
2022-10-23T15:21:25.063Z,11.80
2022-10-23T15:23:53.066Z,11.70
2022-10-23T15:26:23.056Z,11.60
2022-10-23T15:28:55.368Z,11.50
2022-10-23T15:31:43.464Z,11.50
2022-10-23T15:34:14.021Z,11.40
2022-10-23T15:36:41.408Z,11.30
2022-10-23T15:39:10.367Z,11.30
2022-10-23T15:41:39.388Z,11.30
2022-10-23T15:44:07.270Z,11.20
2022-10-23T15:46:34.528Z,11.20
2022-10-23T15:49:01.615Z,11.20
2022-10-23T15:51:28.729Z,11.10
2022-10-23T15:53:57.124Z,11.10
2022-10-23T15:56:25.210Z,11.00
2022-10-23T15:58:52.328Z,10.80
2022-10-23T16:01:19.636Z,10.90
2022-10-23T16:03:47.065Z,10.80
2022-10-23T16:06:16.279Z,10.70
2022-10-23T16:08:46.147Z,10.70
2022-10-23T16:11:20.113Z,10.60
2022-10-23T16:13:47.781Z,10.60
2022-10-23T16:16:15.110Z,10.50
2022-10-23T16:18:43.770Z,10.40
2022-10-23T16:21:19.241Z,10.40
2022-10-23T16:23:46.824Z,10.40
2022-10-23T16:26:14.215Z,10.30
2022-10-23T16:28:43.445Z,10.20
2022-10-23T16:31:16.357Z,10.10
2022-10-23T16:33:44.760Z,10.00
2022-10-23T16:36:11.897Z,10.00
2022-10-23T16:38:38.951Z,10.10
2022-10-23T16:41:07.159Z,10.10
2022-10-23T16:43:34.220Z,10.00
2022-10-23T16:46:11.392Z,10.00
2022-10-23T16:48:38.853Z,9.90
2022-10-23T16:51:11.883Z,9.80
2022-10-23T16:53:39.418Z,9.80
2022-10-23T16:56:08.415Z,9.60
2022-10-23T16:58:35.840Z,9.80
2022-10-23T17:01:08.824Z,9.60
2022-10-23T17:03:37.818Z,9.40
2022-10-23T17:06:08.793Z,9.60
2022-10-23T17:08:37.518Z,9.50
2022-10-23T17:11:06.976Z,9.40
2022-10-23T17:13:35.579Z,9.40
2022-10-23T17:16:21.081Z,9.30
2022-10-23T17:18:48.027Z,9.30
2022-10-23T17:21:20.780Z,9.30
2022-10-23T17:23:49.097Z,9.30
2022-10-23T17:26:19.313Z,9.20
2022-10-23T17:28:46.448Z,9.20
2022-10-23T17:31:22.920Z,9.10
2022-10-23T17:33:52.567Z,9.10
2022-10-23T17:36:21.289Z,9.10
2022-10-23T17:38:48.692Z,9.00
2022-10-23T17:41:17.326Z,9.00
2022-10-23T17:43:44.637Z,8.90
2022-10-23T17:46:12.831Z,8.80
2022-10-23T17:48:41.941Z,8.70
2022-10-23T17:51:14.260Z,8.70
2022-10-23T17:53:43.406Z,8.80
2022-10-23T17:56:12.833Z,8.80
2022-10-23T17:58:40.035Z,8.70
2022-10-23T18:01:09.198Z,8.60
2022-10-23T18:03:37.134Z,8.50
2022-10-23T18:06:28.874Z,8.60
2022-10-23T18:08:57.288Z,8.60
2022-10-23T18:11:27.632Z,8.50
2022-10-23T18:13:55.347Z,8.50
2022-10-23T18:16:22.283Z,8.40
2022-10-23T18:18:51.724Z,8.40
2022-10-23T18:21:20.867Z,8.40
2022-10-23T18:23:47.771Z,8.40
2022-10-23T18:26:27.064Z,8.40
2022-10-23T18:28:57.040Z,8.40
2022-10-23T18:31:25.938Z,8.40
2022-10-23T18:34:03.070Z,8.40
2022-10-23T18:36:33.126Z,8.40
2022-10-23T18:39:00.394Z,8.50
2022-10-23T18:41:28.206Z,8.40
2022-10-23T18:43:55.458Z,8.40
2022-10-23T18:46:22.651Z,8.30
2022-10-23T18:48:52.840Z,8.30
2022-10-23T18:51:26.709Z,8.30
2022-10-23T18:53:53.778Z,8.30
2022-10-23T18:56:23.563Z,8.20
2022-10-23T18:58:51.681Z,8.20
2022-10-23T19:01:19.640Z,8.10
2022-10-23T19:03:47.252Z,8.10
2022-10-23T19:06:14.523Z,8.20
2022-10-23T19:08:43.644Z,8.10
2022-10-23T19:11:12.231Z,8.10
2022-10-23T19:13:40.468Z,8.10
2022-10-23T19:16:12.588Z,8.10
2022-10-23T19:18:42.831Z,8.10
2022-10-23T19:21:09.881Z,8.10
2022-10-23T19:23:38.077Z,8.20
2022-10-23T19:26:08.998Z,8.20
2022-10-23T19:28:37.930Z,8.20
2022-10-23T19:31:06.109Z,8.10
2022-10-23T19:33:34.519Z,8.10
2022-10-23T19:36:05.307Z,8.00
2022-10-23T19:38:35.062Z,8.00
2022-10-23T19:41:02.168Z,8.00
2022-10-23T19:43:29.060Z,8.00
2022-10-23T19:45:56.072Z,8.10
2022-10-23T19:52:04.088Z,8.10
2022-10-23T19:58:18.975Z,8.00
2022-10-23T20:00:45.871Z,8.00
2022-10-23T20:03:12.939Z,8.00
2022-10-23T20:05:45.538Z,8.10
2022-10-23T20:08:12.601Z,8.00
2022-10-23T20:10:43.851Z,8.00
2022-10-23T20:13:20.731Z,8.00
2022-10-23T20:15:47.974Z,8.00
2022-10-23T20:18:15.024Z,8.00
2022-10-23T20:20:42.645Z,7.90
2022-10-23T20:23:09.578Z,8.00
2022-10-23T20:25:36.782Z,8.00
2022-10-23T20:28:04.037Z,8.00
2022-10-23T20:30:31.315Z,8.10
2022-10-23T20:32:58.351Z,8.10
2022-10-23T20:35:25.344Z,8.30
2022-10-23T20:37:52.290Z,8.30
2022-10-23T20:40:19.197Z,8.30
2022-10-23T20:42:46.069Z,8.30
2022-10-23T20:45:12.979Z,8.30
2022-10-23T20:47:39.999Z,8.40
2022-10-23T20:50:08.706Z,8.50
2022-10-23T20:52:35.634Z,8.80
2022-10-23T20:55:02.539Z,9.30
2022-10-23T20:57:29.507Z,9.50
2022-10-23T20:59:56.493Z,9.60
2022-10-23T21:02:23.605Z,10.00
2022-10-23T21:04:50.636Z,10.10
2022-10-23T21:07:18.345Z,10.10
2022-10-23T21:09:45.319Z,10.20
2022-10-23T21:12:12.303Z,10.40
2022-10-23T21:14:39.647Z,10.60
2022-10-23T21:17:08.466Z,10.60
2022-10-23T21:19:35.480Z,10.70
2022-10-23T21:22:02.401Z,10.70
2022-10-23T21:24:29.300Z,10.70
2022-10-23T21:26:56.159Z,10.70
2022-10-23T21:29:23.085Z,10.70
2022-10-23T21:31:55.244Z,10.90
2022-10-23T21:34:23.438Z,10.80
2022-10-23T21:39:37.582Z,10.90
2022-10-23T21:42:04.776Z,10.90
2022-10-23T21:44:31.650Z,10.90
2022-10-23T21:46:58.580Z,10.90
2022-10-23T21:49:25.466Z,10.90
2022-10-23T21:51:53.171Z,11.00
2022-10-23T21:54:20.085Z,11.20
2022-10-23T21:56:49.621Z,11.10
2022-10-23T21:59:19.291Z,11.10
2022-10-23T22:01:47.761Z,11.10
2022-10-23T22:04:17.364Z,11.20
2022-10-23T22:06:46.109Z,11.30
2022-10-23T22:09:16.695Z,11.20
2022-10-23T22:11:43.676Z,11.10
2022-10-23T22:14:10.748Z,11.20
2022-10-23T22:16:37.805Z,11.20
2022-10-23T22:19:04.857Z,11.20
2022-10-23T22:21:32.060Z,11.20
2022-10-23T22:24:00.447Z,11.10
2022-10-23T22:26:40.825Z,11.20
2022-10-23T22:29:16.894Z,11.10
2022-10-23T22:31:47.303Z,11.00
2022-10-23T22:34:47.808Z,11.20
2022-10-23T22:37:12.902Z,11.10
2022-10-23T22:39:40.203Z,11.20
2022-10-23T22:42:07.256Z,11.20
2022-10-23T22:44:34.153Z,11.20
2022-10-23T22:47:01.047Z,11.20
2022-10-23T22:49:28.063Z,11.10
2022-10-23T22:51:54.959Z,11.10
2022-10-23T22:54:21.881Z,11.00
2022-10-23T22:56:48.785Z,10.90
2022-10-23T22:59:15.663Z,10.90
2022-10-23T23:01:48.597Z,10.80
2022-10-23T23:07:06.332Z,10.60
2022-10-23T23:09:36.873Z,10.50
2022-10-23T23:12:04.092Z,10.40
2022-10-23T23:14:31.078Z,10.30
2022-10-23T23:16:58.104Z,10.30
2022-10-23T23:19:26.686Z,10.20
2022-10-23T23:21:58.109Z,10.10
2022-10-23T23:24:26.066Z,10.10
2022-10-23T23:26:53.009Z,10.00
2022-10-23T23:29:19.925Z,9.90
2022-10-23T23:31:46.787Z,9.80
2022-10-23T23:34:13.702Z,9.70
2022-10-23T23:36:41.332Z,9.50
2022-10-23T23:39:08.238Z,9.50
2022-10-23T23:41:35.174Z,9.30
2022-10-23T23:44:02.237Z,9.20
2022-10-23T23:46:29.231Z,9.20
2022-10-23T23:48:56.170Z,9.20
2022-10-23T23:51:24.693Z,9.10
2022-10-23T23:53:52.299Z,9.10
2022-10-23T23:56:19.717Z,9.10
2022-10-23T23:58:46.887Z,9.10
